createdAt,value
2022-11-04T00:02:17.007Z,98883.53
2022-11-04T00:04:44.216Z,98894.22
2022-11-04T00:07:31.171Z,98892.56
2022-11-04T00:09:58.657Z,98879.69
2022-11-04T00:12:25.674Z,98882.00
2022-11-04T00:14:53.362Z,98871.78
2022-11-04T00:17:21.905Z,98870.97
2022-11-04T00:20:30.318Z,98869.72
2022-11-04T00:23:16.692Z,98863.56
2022-11-04T00:26:02.292Z,98868.88
2022-11-04T00:28:44.670Z,98865.63
2022-11-04T00:31:30.598Z,98868.75
2022-11-04T00:33:59.349Z,98859.59
2022-11-04T00:36:27.092Z,98855.28
2022-11-04T00:38:54.724Z,98849.94
2022-11-04T00:41:26.367Z,98837.09
2022-11-04T00:43:59.378Z,98847.19
2022-11-04T00:46:29.189Z,98839.19
2022-11-04T00:48:56.411Z,98833.84
2022-11-04T00:51:24.037Z,98833.25
2022-11-04T00:53:53.129Z,98833.03
2022-11-04T00:56:20.170Z,98825.25
2022-11-04T00:58:47.616Z,98835.91
2022-11-04T01:01:19.919Z,98825.25
2022-11-04T01:03:50.519Z,98810.31
2022-11-04T01:06:19.367Z,98820.41
2022-11-04T01:08:47.720Z,98810.75
2022-11-04T01:11:16.382Z,98816.31
2022-11-04T01:13:43.651Z,98811.78
2022-11-04T01:16:12.871Z,98803.22
2022-11-04T01:18:41.392Z,98803.44
2022-11-04T01:21:13.039Z,98808.97
2022-11-04T01:23:42.589Z,98803.66
2022-11-04T01:26:19.478Z,98811.06
2022-11-04T01:28:47.192Z,98787.56
2022-11-04T01:31:21.550Z,98784.28
2022-11-04T01:33:50.721Z,98782.09
2022-11-04T01:36:19.099Z,98778.25
2022-11-04T01:38:46.489Z,98777.66
2022-11-04T01:41:23.541Z,98770.69
2022-11-04T01:43:55.163Z,98767.00
2022-11-04T01:46:47.449Z,98767.44
2022-11-04T01:49:33.351Z,98754.00
2022-11-04T01:52:10.933Z,98748.06
2022-11-04T01:54:41.795Z,98738.94
2022-11-04T01:57:17.995Z,98740.63
2022-11-04T01:59:46.527Z,98726.94
2022-11-04T02:02:13.832Z,98730.06
2022-11-04T02:04:43.927Z,98733.75
2022-11-04T02:07:12.210Z,98727.28
2022-11-04T02:09:41.516Z,98717.44
2022-11-04T02:12:27.240Z,98723.56
2022-11-04T02:14:55.756Z,98719.88
2022-11-04T02:17:52.282Z,98714.53
2022-11-04T02:20:41.128Z,98712.91
2022-11-04T02:23:34.292Z,98714.16
2022-11-04T02:26:52.892Z,98705.22
2022-11-04T02:29:46.467Z,98696.19
2022-11-04T02:32:34.473Z,98689.31
2022-11-04T02:35:16.421Z,98693.09
2022-11-04T02:38:18.603Z,98691.03
2022-11-04T02:41:07.172Z,98694.88
2022-11-04T02:43:40.117Z,98682.16
2022-11-04T02:46:22.259Z,98695.22
2022-11-04T02:49:10.348Z,98693.97
2022-11-04T02:51:49.126Z,98709.34
2022-11-04T02:54:19.096Z,98697.69
2022-11-04T02:56:52.557Z,98697.53
2022-11-04T02:59:38.185Z,98697.63
2022-11-04T03:02:27.317Z,98696.00
2022-11-04T03:04:58.729Z,98700.06
2022-11-04T03:07:35.054Z,98699.13
2022-11-04T03:10:11.200Z,98689.69
2022-11-04T03:13:05.424Z,98691.09
2022-11-04T03:15:38.093Z,98694.56
2022-11-04T03:18:36.974Z,98688.78
2022-11-04T03:21:10.876Z,98694.94
2022-11-04T03:23:38.808Z,98681.84
2022-11-04T03:26:25.509Z,98689.25
2022-11-04T03:29:13.949Z,98677.84
2022-11-04T03:32:08.145Z,98673.56
2022-11-04T03:34:37.795Z,98672.09
2022-11-04T03:37:05.788Z,98665.16
2022-11-04T03:39:33.548Z,98671.63
2022-11-04T03:42:20.342Z,98665.88
2022-11-04T03:44:55.406Z,98663.81
2022-11-04T03:47:27.037Z,98668.91
2022-11-04T03:50:06.961Z,98661.75
2022-11-04T03:52:35.881Z,98669.72
2022-11-04T03:55:07.305Z,98668.34
2022-11-04T03:58:00.874Z,98663.22
2022-11-04T04:00:51.873Z,98651.50
2022-11-04T04:03:31.332Z,98647.25
2022-11-04T04:06:19.924Z,98644.00
2022-11-04T04:08:55.767Z,98638.53
2022-11-04T04:11:49.684Z,98631.56
2022-11-04T04:14:40.367Z,98638.16
2022-11-04T04:17:22.108Z,98633.28
2022-11-04T04:20:20.471Z,98635.03
2022-11-04T04:22:58.689Z,98635.31
2022-11-04T04:25:49.116Z,98630.69
2022-11-04T04:28:19.367Z,98623.63
2022-11-04T04:30:46.983Z,98626.41
2022-11-04T04:33:18.721Z,98618.00
2022-11-04T04:35:56.175Z,98628.50
2022-11-04T04:38:45.784Z,98618.31
2022-11-04T04:41:47.459Z,98622.22
2022-11-04T04:44:45.529Z,98617.59
2022-11-04T04:47:24.643Z,98606.16
2022-11-04T04:50:01.019Z,98602.44
2022-11-04T04:52:34.394Z,98604.28
2022-11-04T04:55:04.405Z,98610.66
2022-11-04T04:57:31.765Z,98604.97
2022-11-04T04:59:58.817Z,98602.53
2022-11-04T05:02:26.154Z,98599.72
2022-11-04T05:04:53.161Z,98604.31
2022-11-04T05:07:20.398Z,98598.19
2022-11-04T05:09:47.501Z,98602.25
2022-11-04T05:12:14.532Z,98589.53
2022-11-04T05:14:41.734Z,98585.72
2022-11-04T05:17:08.768Z,98588.66
2022-11-04T05:19:36.017Z,98597.81
2022-11-04T05:22:03.585Z,98597.38
2022-11-04T05:24:30.839Z,98596.94
2022-11-04T05:26:57.785Z,98601.66
2022-11-04T05:29:24.999Z,98594.13
2022-11-04T05:31:52.018Z,98588.81
2022-11-04T05:34:19.209Z,98592.03
2022-11-04T05:36:46.115Z,98591.69
2022-11-04T05:39:14.580Z,98591.91
2022-11-04T05:41:41.613Z,98590.59
2022-11-04T05:44:10.628Z,98585.44
2022-11-04T05:46:37.623Z,98597.84
2022-11-04T05:49:05.118Z,98587.94
2022-11-04T05:51:32.171Z,98592.19
2022-11-04T05:54:00.391Z,98591.75
2022-11-04T05:56:29.183Z,98591.75
2022-11-04T05:58:56.446Z,98592.34
2022-11-04T06:01:31.670Z,98591.75
2022-11-04T06:04:00.707Z,98597.06
2022-11-04T06:06:31.870Z,98600.31
2022-11-04T06:08:59.983Z,98605.66
2022-11-04T06:11:29.732Z,98595.25
2022-11-04T06:13:57.797Z,98601.97
2022-11-04T06:16:25.279Z,98593.03
2022-11-04T06:18:53.916Z,98599.16
2022-11-04T06:21:29.018Z,98598.78
2022-11-04T06:23:59.625Z,98607.13
2022-11-04T06:26:28.956Z,98595.47
2022-11-04T06:28:57.195Z,98606.09
2022-11-04T06:31:24.188Z,98613.03
2022-11-04T06:33:51.591Z,98615.84
2022-11-04T06:36:18.561Z,98603.94
2022-11-04T06:38:45.926Z,98603.84
2022-11-04T06:41:16.935Z,98613.63
2022-11-04T06:43:44.505Z,98616.41
2022-11-04T06:46:37.456Z,98604.88
2022-11-04T06:49:07.645Z,98598.22
2022-11-04T06:51:34.587Z,98598.34
2022-11-04T06:54:02.100Z,98603.81
2022-11-04T06:56:29.226Z,98591.06
2022-11-04T06:58:56.940Z,98595.34
2022-11-04T07:01:28.162Z,98595.94
2022-11-04T07:03:59.303Z,98586.91
2022-11-04T07:06:29.181Z,98578.34
2022-11-04T07:09:00.316Z,98593.22
2022-11-04T07:11:32.081Z,98587.34
2022-11-04T07:13:59.575Z,98590.97
2022-11-04T07:16:26.703Z,98589.72
2022-11-04T07:18:55.746Z,98586.63
2022-11-04T07:21:23.711Z,98583.53
2022-11-04T07:23:51.481Z,98576.56
2022-11-04T07:26:18.916Z,98580.28
2022-11-04T07:28:46.237Z,98576.56
2022-11-04T07:31:14.910Z,98576.38
2022-11-04T07:33:42.492Z,98576.13
2022-11-04T07:36:13.411Z,98582.31
2022-11-04T07:38:40.688Z,98571.31
2022-11-04T07:41:08.331Z,98566.34
2022-11-04T07:43:35.569Z,98557.53
2022-11-04T07:46:14.659Z,98562.03
2022-11-04T07:48:42.008Z,98546.72
2022-11-04T07:51:16.267Z,98547.28
2022-11-04T07:53:44.220Z,98556.47
2022-11-04T07:56:13.516Z,98556.47
2022-11-04T07:58:41.919Z,98546.94
2022-11-04T08:01:16.412Z,98554.72
2022-11-04T08:03:44.553Z,98547.28
2022-11-04T08:06:14.761Z,98540.19
2022-11-04T08:08:43.578Z,98528.13
2022-11-04T08:11:18.187Z,98525.06
2022-11-04T08:13:47.006Z,98524.91
2022-11-04T08:16:21.100Z,98521.13
2022-11-04T08:18:52.106Z,98523.25
2022-11-04T08:21:21.008Z,98512.75
2022-11-04T08:23:48.362Z,98517.34
2022-11-04T08:26:19.314Z,98521.31
2022-11-04T08:28:47.691Z,98512.00
2022-11-04T08:31:21.119Z,98502.59
2022-11-04T08:33:48.713Z,98503.06
2022-11-04T08:36:23.902Z,98503.03
2022-11-04T08:38:53.807Z,98495.19
2022-11-04T08:41:29.181Z,98493.00
2022-11-04T08:44:01.071Z,98484.91
2022-11-04T08:46:29.289Z,98485.72
2022-11-04T08:48:56.629Z,98477.34
2022-11-04T08:51:27.589Z,98475.56
2022-11-04T08:53:55.198Z,98472.63
2022-11-04T08:56:30.164Z,98475.13
2022-11-04T08:58:59.872Z,98472.66
2022-11-04T09:01:32.757Z,98465.72
2022-11-04T09:04:05.762Z,98453.59
2022-11-04T09:06:40.404Z,98450.91
2022-11-04T09:09:12.432Z,98443.47
2022-11-04T09:11:42.267Z,98444.31
2022-11-04T09:14:11.240Z,98443.00
2022-11-04T09:16:41.357Z,98423.66
2022-11-04T09:19:09.251Z,98423.13
2022-11-04T09:21:36.397Z,98417.50
2022-11-04T09:24:05.076Z,98413.75
2022-11-04T09:26:32.230Z,98409.41
2022-11-04T09:29:00.461Z,98410.72
2022-11-04T09:31:30.380Z,98403.16
2022-11-04T09:33:58.195Z,98398.84
2022-11-04T09:36:25.830Z,98391.88
2022-11-04T09:38:53.991Z,98393.47
2022-11-04T09:42:03.183Z,98392.44
2022-11-04T09:45:20.740Z,98397.84
2022-11-04T09:47:50.725Z,98388.19
2022-11-04T09:50:26.608Z,98391.13
2022-11-04T09:53:17.722Z,98389.25
2022-11-04T09:55:52.711Z,98386.00
2022-11-04T09:58:19.986Z,98377.31
2022-11-04T10:01:21.076Z,98374.53
2022-11-04T10:04:03.269Z,98368.56
2022-11-04T10:07:05.747Z,98356.84
2022-11-04T10:09:41.966Z,98360.53
2022-11-04T10:13:04.391Z,98359.44
2022-11-04T10:15:53.704Z,98360.00
2022-11-04T10:18:48.626Z,98355.69
2022-11-04T10:21:54.027Z,98346.38
2022-11-04T10:24:42.496Z,98347.88
2022-11-04T10:27:30.687Z,98347.69
2022-11-04T10:30:06.775Z,98342.19
2022-11-04T10:32:46.035Z,98347.06
2022-11-04T10:35:13.241Z,98343.03
2022-11-04T10:37:40.417Z,98341.03
2022-11-04T10:40:37.777Z,98340.38
2022-11-04T10:43:14.063Z,98334.41
2022-11-04T10:46:18.887Z,98340.94
2022-11-04T10:49:50.568Z,98339.81
2022-11-04T10:52:33.399Z,98342.56
2022-11-04T10:55:02.160Z,98329.13
2022-11-04T10:57:30.890Z,98340.56
2022-11-04T11:00:05.466Z,98338.44
2022-11-04T11:02:47.126Z,98341.69
2022-11-04T11:05:20.164Z,98336.09
2022-11-04T11:07:52.841Z,98332.06
2022-11-04T11:10:30.829Z,98328.31
2022-11-04T11:13:03.571Z,98320.16
2022-11-04T11:15:39.257Z,98320.16
2022-11-04T11:18:06.446Z,98321.78
2022-11-04T11:20:37.604Z,98322.28
2022-11-04T11:23:10.000Z,98309.28
2022-11-04T11:25:50.344Z,98306.63
2022-11-04T11:28:26.564Z,98311.75
2022-11-04T11:30:59.948Z,98317.16
2022-11-04T11:33:36.838Z,98298.00
2022-11-04T11:36:18.113Z,98295.88
2022-11-04T11:39:16.931Z,98288.38
2022-11-04T11:42:06.360Z,98286.19
2022-11-04T11:44:44.616Z,98289.53
2022-11-04T11:47:28.115Z,98284.59
2022-11-04T11:50:30.643Z,98285.84
2022-11-04T11:53:18.419Z,98281.75
2022-11-04T11:55:59.689Z,98290.91
2022-11-04T12:02:04.677Z,98282.63
2022-11-04T12:19:36.123Z,98258.69
2022-11-04T12:22:20.318Z,98261.97
2022-11-04T12:25:09.419Z,98263.69
2022-11-04T12:27:56.290Z,98262.06
2022-11-04T12:30:32.607Z,98257.34
2022-11-04T12:33:25.842Z,98263.25
2022-11-04T12:36:21.103Z,98261.56
2022-11-04T12:39:08.724Z,98265.44
2022-11-04T12:42:21.085Z,98260.09
2022-11-04T12:45:11.396Z,98261.31
2022-11-04T14:46:21.476Z,98266.91
2022-11-04T14:50:47.717Z,98279.03
2022-11-04T15:24:39.665Z,98283.28
2022-11-04T15:28:17.477Z,98285.97
2022-11-04T15:42:38.342Z,98268.28
2022-11-04T16:03:07.945Z,98262.44
2022-11-04T16:05:42.830Z,98260.84
2022-11-04T16:26:50.866Z,98247.50
2022-11-04T16:30:04.672Z,98258.75
2022-11-04T18:22:22.214Z,98272.13
2022-11-04T19:33:05.936Z,98304.16
2022-11-04T19:41:25.869Z,98309.78
2022-11-04T19:58:28.954Z,98303.59
2022-11-04T20:01:21.525Z,98306.81
2022-11-04T20:28:30.086Z,98331.69
2022-11-04T20:31:13.117Z,98335.19
2022-11-04T21:08:46.869Z,98368.88
2022-11-04T21:11:31.846Z,98380.13
2022-11-04T21:14:13.733Z,98383.84
2022-11-04T21:16:58.527Z,98381.44
2022-11-04T21:19:25.664Z,98377.16
2022-11-04T21:27:41.747Z,98364.78
2022-11-04T21:30:12.854Z,98386.22
2022-11-04T21:32:39.861Z,98389.72
2022-11-04T21:35:08.103Z,98397.47
2022-11-04T21:37:37.115Z,98385.41
2022-11-04T21:40:05.411Z,98380.56
2022-11-04T21:42:32.399Z,98388.06
2022-11-04T21:44:59.535Z,98390.72
2022-11-04T21:47:26.652Z,98388.06
2022-11-04T21:49:53.829Z,98397.94
2022-11-04T21:52:20.800Z,98398.75
2022-11-04T22:32:46.451Z,98398.09
2022-11-04T23:08:34.982Z,98386.28
2022-11-04T23:11:38.413Z,98383.06
2022-11-04T23:50:27.873Z,98422.63
